Time;durP1;ratioP1;P1;durP2;ratioP2;P2;SDS_P1;SDS_P2;PMS_P1;PMS_P2;Temp;Humidity;BMP_temperature;BMP_pressure;BME280_temperature;BME280_humidity;BME280_pressure;Samples;Min_cycle;Max_cycle;Signal;HPM_P1;HPM_P2
2022/01/24 00:00:15;;;;;;;;;;;4.70;99.90;;;;;;5242661;27;20321;-89
2022/01/24 00:02:43;;;;;;;;;;;4.70;99.90;;;;;;5169737;27;20047;-89
2022/01/24 00:05:16;;;;;;;;;;;4.70;99.90;;;;;;5152570;27;20064;-89
2022/01/24 00:07:43;;;;;;;;;;;4.70;99.90;;;;;;5136712;27;20045;-89
2022/01/24 00:10:18;;;;;;;;;;;4.70;99.90;;;;;;5155298;27;20044;-89
2022/01/24 00:18:27;;;;;;;;;;;4.70;99.90;;;;;;5136803;27;20001;-89
2022/01/24 00:29:28;;;;;;;;;;;4.70;99.90;;;;;;5217884;27;20052;-89
2022/01/24 00:31:56;;;;;;;;;;;4.70;99.90;;;;;;5136283;27;20028;-89
2022/01/24 00:34:25;;;;;;;;;;;4.70;99.90;;;;;;5242553;27;26534;-89
2022/01/24 00:36:55;;;;;;;;;;;4.70;99.90;;;;;;5136873;27;20043;-89
2022/01/24 00:39:22;;;;;;;;;;;4.70;99.90;;;;;;5152843;27;27235;-89
2022/01/24 00:45:11;;;;;;;;;;;4.70;99.90;;;;;;5119721;27;29840;-88
2022/01/24 00:55:46;;;;;;;;;;;4.60;99.90;;;;;;5154424;27;36550;-89
2022/01/24 00:58:16;;;;;;;;;;;4.60;99.90;;;;;;5170325;27;32142;-89
2022/01/24 01:00:43;;;;;;;;;;;4.60;99.90;;;;;;5152636;27;25415;-89
2022/01/24 01:03:17;;;;;;;;;;;4.60;99.90;;;;;;5117985;27;39582;-89
2022/01/24 01:19:07;;;;;;;;;;;4.60;99.90;;;;;;5134708;27;44464;-89
2022/01/24 01:21:34;;;;;;;;;;;4.60;99.90;;;;;;5135257;27;34741;-89
2022/01/24 01:24:01;;;;;;;;;;;4.60;99.90;;;;;;5135409;27;30463;-89
2022/01/24 01:26:41;;;;;;;;;;;4.60;99.90;;;;;;5134998;27;39313;-89
2022/01/24 01:29:17;;;;;;;;;;;4.60;99.90;;;;;;5169799;27;37761;-89
2022/01/24 01:55:43;;;;;;;;;;;4.60;99.90;;;;;;5153236;27;39581;-89
2022/01/24 01:58:12;;;;;;;;;;;4.60;99.90;;;;;;5152412;27;36389;-89
2022/01/24 02:00:41;;;;;;;;;;;4.60;99.90;;;;;;5169618;27;34472;-89
2022/01/24 02:03:09;;;;;;;;;;;4.50;99.90;;;;;;5169147;27;36526;-89
2022/01/24 02:05:36;;;;;;;;;;;4.60;99.90;;;;;;5151996;27;31248;-89
2022/01/24 02:08:04;;;;;;;;;;;4.50;99.90;;;;;;5153398;27;31799;-89
2022/01/24 02:10:34;;;;;;;;;;;4.60;99.90;;;;;;5152489;27;20004;-89
2022/01/24 02:13:02;;;;;;;;;;;4.50;99.90;;;;;;5117877;27;34393;-89
2022/01/24 02:21:07;;;;;;;;;;;4.50;99.90;;;;;;5135508;27;20922;-89
2022/01/24 02:26:00;;;;;;;;;;;4.50;99.90;;;;;;5136325;27;20007;-89
2022/01/24 02:28:32;;;;;;;;;;;4.50;99.90;;;;;;5152784;27;19993;-89
2022/01/24 02:31:23;;;;;;;;;;;4.40;99.90;;;;;;5153054;27;20037;-89
2022/01/24 02:33:50;;;;;;;;;;;4.50;99.90;;;;;;5154475;27;19993;-89
2022/01/24 02:36:23;;;;;;;;;;;4.50;99.90;;;;;;5170898;27;20001;-89
2022/01/24 02:49:53;;;;;;;;;;;4.40;99.90;;;;;;5134483;27;36830;-89
2022/01/24 02:52:24;;;;;;;;;;;4.40;99.90;;;;;;5135381;27;25709;-89
2022/01/24 02:54:51;;;;;;;;;;;4.40;99.90;;;;;;5134544;27;43438;-89
2022/01/24 02:57:20;;;;;;;;;;;4.40;99.90;;;;;;5135107;27;25733;-89
2022/01/24 02:59:50;;;;;;;;;;;4.40;99.90;;;;;;5134990;27;32998;-89
2022/01/24 03:02:17;;;;;;;;;;;4.40;99.90;;;;;;5134020;27;41293;-89
2022/01/24 03:04:46;;;;;;;;;;;4.40;99.90;;;;;;5134520;27;34481;-89
2022/01/24 03:07:14;;;;;;;;;;;4.40;99.90;;;;;;5151602;27;39526;-89
2022/01/24 03:09:49;;;;;;;;;;;4.40;99.90;;;;;;5119991;27;20001;-89
2022/01/24 03:12:37;;;;;;;;;;;4.40;99.90;;;;;;5152377;27;36511;-89
2022/01/24 03:15:04;;;;;;;;;;;4.40;99.90;;;;;;5153701;27;29914;-89
2022/01/24 03:17:31;;;;;;;;;;;4.40;99.90;;;;;;5152015;27;30522;-89
2022/01/24 03:19:58;;;;;;;;;;;4.40;99.90;;;;;;5134984;27;41328;-89
2022/01/24 03:22:25;;;;;;;;;;;4.40;99.90;;;;;;5169401;27;25302;-89
2022/01/24 03:24:55;;;;;;;;;;;4.30;99.90;;;;;;5152530;27;25454;-89
2022/01/24 03:27:22;;;;;;;;;;;4.30;99.90;;;;;;5134794;27;34269;-88
2022/01/24 03:29:49;;;;;;;;;;;4.40;99.90;;;;;;5169592;27;24617;-89
2022/01/24 03:32:19;;;;;;;;;;;4.40;99.90;;;;;;5134511;27;28072;-89
2022/01/24 03:34:47;;;;;;;;;;;4.40;99.90;;;;;;5134641;27;35259;-89
2022/01/24 03:37:14;;;;;;;;;;;4.40;99.90;;;;;;5135843;27;20057;-89
2022/01/24 03:39:41;;;;;;;;;;;4.40;99.90;;;;;;5153376;27;29282;-89
2022/01/24 03:42:11;;;;;;;;;;;4.40;99.90;;;;;;5117942;27;23360;-89
2022/01/24 03:44:38;;;;;;;;;;;4.30;99.90;;;;;;5151853;27;26215;-89
2022/01/24 03:49:57;;;;;;;;;;;4.40;99.90;;;;;;5131826;27;43608;-89
2022/01/24 03:52:24;;;;;;;;;;;4.40;99.90;;;;;;5169500;27;35276;-89
2022/01/24 03:54:51;;;;;;;;;;;4.40;99.90;;;;;;5117070;27;37607;-89
2022/01/24 03:57:19;;;;;;;;;;;4.40;99.90;;;;;;5170215;27;20422;-89
2022/01/24 03:59:46;;;;;;;;;;;4.40;99.90;;;;;;5133975;27;44837;-89
2022/01/24 04:02:14;;;;;;;;;;;4.40;99.90;;;;;;5134217;27;34196;-89
2022/01/24 04:04:41;;;;;;;;;;;4.40;99.90;;;;;;5151165;27;37431;-89
2022/01/24 04:07:09;;;;;;;;;;;4.40;99.90;;;;;;5134649;27;27873;-89
2022/01/24 04:09:38;;;;;;;;;;;4.40;99.90;;;;;;5153895;27;20027;-89
2022/01/24 04:12:07;;;;;;;;;;;4.40;99.90;;;;;;5117698;27;21536;-89
2022/01/24 04:22:29;;;;;;;;;;;4.40;99.90;;;;;;5134480;27;37114;-89
2022/01/24 04:25:02;;;;;;;;;;;4.40;99.90;;;;;;5169042;27;40639;-89
2022/01/24 04:27:29;;;;;;;;;;;4.40;99.90;;;;;;5152084;27;39325;-89
2022/01/24 04:29:56;;;;;;;;;;;4.30;99.90;;;;;;5151336;27;35016;-89
2022/01/24 04:32:24;;;;;;;;;;;4.40;99.90;;;;;;5153252;27;20055;-89
2022/01/24 04:34:51;;;;;;;;;;;4.40;99.90;;;;;;5134974;27;32779;-89
2022/01/24 04:37:18;;;;;;;;;;;4.30;99.90;;;;;;5134350;27;33346;-89
2022/01/24 04:39:45;;;;;;;;;;;4.30;99.90;;;;;;5134362;27;31378;-89
2022/01/24 04:42:18;;;;;;;;;;;4.40;99.90;;;;;;5134417;27;31783;-89
2022/01/24 04:45:23;;;;;;;;;;;4.40;99.90;;;;;;5152108;27;34926;-89
2022/01/24 04:53:15;;;;;;;;;;;4.40;99.90;;;;;;5153717;27;26188;-89
2022/01/24 04:55:42;;;;;;;;;;;4.40;99.90;;;;;;5135536;27;41271;-89
2022/01/24 04:58:11;;;;;;;;;;;4.40;99.90;;;;;;5135796;27;22351;-89
2022/01/24 05:00:38;;;;;;;;;;;4.40;99.90;;;;;;5118445;27;31174;-89
2022/01/24 05:03:08;;;;;;;;;;;4.40;99.90;;;;;;5135678;27;32448;-89
2022/01/24 05:05:35;;;;;;;;;;;4.40;99.90;;;;;;5135402;27;35603;-89
2022/01/24 05:08:05;;;;;;;;;;;4.40;99.90;;;;;;5153813;27;29360;-89
2022/01/24 05:10:41;;;;;;;;;;;4.40;99.90;;;;;;5152422;27;37898;-89
2022/01/24 05:24:00;;;;;;;;;;;4.40;99.90;;;;;;5154331;27;33296;-89
2022/01/24 05:26:27;;;;;;;;;;;4.30;99.90;;;;;;5152320;27;32143;-89
2022/01/24 05:28:54;;;;;;;;;;;4.40;99.90;;;;;;5136360;27;20437;-88
2022/01/24 05:31:21;;;;;;;;;;;4.40;99.90;;;;;;5170161;27;33128;-89
2022/01/24 05:33:49;;;;;;;;;;;4.40;99.90;;;;;;5135361;27;32200;-89
2022/01/24 05:36:16;;;;;;;;;;;4.40;99.90;;;;;;5135457;27;26659;-89
2022/01/24 05:38:43;;;;;;;;;;;4.40;99.90;;;;;;5135099;27;38175;-89
2022/01/24 05:41:10;;;;;;;;;;;4.30;99.90;;;;;;5135057;27;42707;-89
2022/01/24 05:43:37;;;;;;;;;;;4.40;99.90;;;;;;5153462;27;34401;-89
2022/01/24 05:46:04;;;;;;;;;;;4.30;99.90;;;;;;5135136;27;41130;-89
2022/01/24 05:48:32;;;;;;;;;;;4.30;99.90;;;;;;5135041;27;38626;-89
2022/01/24 05:51:02;;;;;;;;;;;4.40;99.90;;;;;;5135421;27;26645;-89
2022/01/24 05:53:29;;;;;;;;;;;4.40;99.90;;;;;;5135241;27;25180;-89
2022/01/24 05:55:56;;;;;;;;;;;4.40;99.90;;;;;;5134760;27;38439;-89
2022/01/24 05:58:26;;;;;;;;;;;4.40;99.90;;;;;;5136024;27;20053;-89
2022/01/24 06:00:56;;;;;;;;;;;4.40;99.90;;;;;;5117714;27;42036;-89
2022/01/24 06:03:24;;;;;;;;;;;4.30;99.90;;;;;;5134823;27;42274;-89
2022/01/24 06:05:51;;;;;;;;;;;4.30;99.90;;;;;;5134864;27;35246;-89
2022/01/24 06:08:18;;;;;;;;;;;4.30;99.90;;;;;;5135641;27;35234;-89
2022/01/24 06:10:47;;;;;;;;;;;4.30;99.90;;;;;;5118394;27;24271;-89
2022/01/24 06:13:14;;;;;;;;;;;4.30;99.90;;;;;;5136052;27;20086;-89
2022/01/24 06:15:42;;;;;;;;;;;4.30;99.90;;;;;;5153040;27;20000;-89
2022/01/24 06:18:09;;;;;;;;;;;4.30;99.90;;;;;;5134887;27;37101;-89
2022/01/24 06:20:41;;;;;;;;;;;4.30;99.90;;;;;;5118313;27;42430;-89
2022/01/24 06:23:11;;;;;;;;;;;4.30;99.90;;;;;;5134598;27;39444;-89
2022/01/24 06:25:39;;;;;;;;;;;4.30;99.90;;;;;;5169794;27;31816;-89
2022/01/24 06:28:08;;;;;;;;;;;4.30;99.90;;;;;;5152778;27;36343;-89
2022/01/24 06:30:35;;;;;;;;;;;4.30;99.90;;;;;;5117937;27;36207;-89
2022/01/24 06:33:02;;;;;;;;;;;4.30;99.90;;;;;;5169017;27;39372;-89
2022/01/24 06:35:30;;;;;;;;;;;4.30;99.90;;;;;;5136179;27;20001;-89
2022/01/24 06:37:57;;;;;;;;;;;4.30;99.90;;;;;;5134444;27;42854;-89
2022/01/24 06:40:24;;;;;;;;;;;4.30;99.90;;;;;;5134430;27;37940;-89
2022/01/24 06:42:51;;;;;;;;;;;4.30;99.90;;;;;;5117414;27;42452;-89
2022/01/24 06:45:20;;;;;;;;;;;4.30;99.90;;;;;;5134333;27;45648;-89
2022/01/24 06:47:47;;;;;;;;;;;4.30;99.90;;;;;;5134220;27;44436;-89
2022/01/24 06:50:15;;;;;;;;;;;4.30;99.90;;;;;;5134824;27;32136;-88
2022/01/24 06:52:42;;;;;;;;;;;4.30;99.90;;;;;;5135105;27;20020;-89
2022/01/24 06:55:09;;;;;;;;;;;4.30;99.90;;;;;;5135458;27;31303;-89
2022/01/24 06:57:36;;;;;;;;;;;4.30;99.90;;;;;;5134620;27;35674;-89
2022/01/24 07:00:04;;;;;;;;;;;4.30;99.90;;;;;;5117772;27;24332;-89
2022/01/24 07:02:33;;;;;;;;;;;4.30;99.90;;;;;;5242290;27;20379;-89
2022/01/24 07:05:04;;;;;;;;;;;4.30;99.90;;;;;;5153561;27;20013;-89
2022/01/24 07:07:33;;;;;;;;;;;4.30;99.90;;;;;;5169320;27;39581;-89
2022/01/24 07:10:00;;;;;;;;;;;4.30;99.90;;;;;;5153258;27;43602;-89
2022/01/24 07:12:54;;;;;;;;;;;4.30;99.90;;;;;;5149476;27;20043;-89
2022/01/24 07:15:29;;;;;;;;;;;4.30;99.90;;;;;;5151643;27;28576;-89
2022/01/24 07:20:35;;;;;;;;;;;4.30;99.90;;;;;;5135070;27;32585;-89
2022/01/24 07:23:02;;;;;;;;;;;4.30;99.90;;;;;;5134752;27;25334;-89
2022/01/24 07:25:29;;;;;;;;;;;4.30;99.90;;;;;;5135221;27;20329;-89
2022/01/24 07:27:57;;;;;;;;;;;4.30;99.90;;;;;;5118642;27;20001;-89
2022/01/24 07:30:25;;;;;;;;;;;4.20;99.90;;;;;;5117532;27;34400;-89
2022/01/24 07:32:57;;;;;;;;;;;4.30;99.90;;;;;;5118164;27;19989;-89
2022/01/24 07:35:25;;;;;;;;;;;4.30;99.90;;;;;;5152223;27;24489;-89
2022/01/24 07:37:55;;;;;;;;;;;4.30;99.90;;;;;;5134980;27;21625;-89
2022/01/24 07:40:26;;;;;;;;;;;4.30;99.90;;;;;;5134464;27;29296;-89
2022/01/24 07:43:09;;;;;;;;;;;4.30;99.90;;;;;;5168852;27;33231;-89
2022/01/24 07:45:40;;;;;;;;;;;4.30;99.90;;;;;;5134646;27;34201;-89
2022/01/24 07:48:07;;;;;;;;;;;4.30;99.90;;;;;;5135096;27;25606;-89
2022/01/24 07:50:40;;;;;;;;;;;4.30;99.90;;;;;;5135324;27;19997;-89
2022/01/24 07:53:12;;;;;;;;;;;4.30;99.90;;;;;;5152435;27;20032;-89
2022/01/24 07:55:47;;;;;;;;;;;4.30;99.90;;;;;;5152091;27;20037;-89
2022/01/24 07:58:14;;;;;;;;;;;4.30;99.90;;;;;;5152610;27;20076;-89
2022/01/24 08:00:42;;;;;;;;;;;4.20;99.90;;;;;;5135122;27;19996;-89
2022/01/24 08:03:09;;;;;;;;;;;4.30;99.90;;;;;;5118073;27;20043;-89
2022/01/24 08:05:40;;;;;;;;;;;4.20;99.90;;;;;;5135744;27;20027;-89
2022/01/24 08:08:10;;;;;;;;;;;4.20;99.90;;;;;;5170535;27;20052;-89
2022/01/24 08:10:40;;;;;;;;;;;4.20;99.90;;;;;;5135921;27;19997;-89
2022/01/24 08:13:10;;;;;;;;;;;4.20;99.90;;;;;;5135334;27;20003;-89
2022/01/24 08:15:43;;;;;;;;;;;4.20;99.90;;;;;;5135335;27;19997;-88
2022/01/24 08:18:14;;;;;;;;;;;4.20;99.90;;;;;;5153000;27;20045;-88
2022/01/24 08:20:42;;;;;;;;;;;4.20;99.90;;;;;;5135201;27;20036;-89
2022/01/24 08:23:09;;;;;;;;;;;4.20;99.90;;;;;;5135362;27;20028;-89
2022/01/24 08:25:39;;;;;;;;;;;4.20;99.90;;;;;;5170621;27;20019;-89
2022/01/24 08:28:07;;;;;;;;;;;4.20;99.90;;;;;;5170117;27;19989;-89
2022/01/24 08:30:34;;;;;;;;;;;4.20;99.90;;;;;;5120006;27;20001;-89
2022/01/24 08:33:05;;;;;;;;;;;4.20;99.90;;;;;;5154131;27;20072;-89
2022/01/24 08:35:33;;;;;;;;;;;4.20;99.90;;;;;;5171536;27;20401;-88
2022/01/24 08:38:04;;;;;;;;;;;4.20;99.90;;;;;;5171275;27;20323;-89
2022/01/24 08:40:37;;;;;;;;;;;4.20;99.90;;;;;;5136636;27;20040;-89
2022/01/24 08:43:22;;;;;;;;;;;4.20;99.90;;;;;;5154905;27;20000;-89
2022/01/24 08:45:50;;;;;;;;;;;4.20;99.90;;;;;;5136992;27;20044;-89
2022/01/24 08:48:31;;;;;;;;;;;4.20;99.90;;;;;;5136488;27;20035;-89
2022/01/24 08:51:02;;;;;;;;;;;4.20;99.90;;;;;;5136904;27;20040;-89
2022/01/24 08:53:31;;;;;;;;;;;4.20;99.90;;;;;;5155575;27;19997;-89
2022/01/24 08:55:59;;;;;;;;;;;4.20;99.90;;;;;;5171150;27;20018;-89
2022/01/24 08:58:30;;;;;;;;;;;4.20;99.90;;;;;;5171073;27;20048;-89
2022/01/24 09:00:58;;;;;;;;;;;4.20;99.90;;;;;;5170664;27;20001;-89
2022/01/24 09:03:32;;;;;;;;;;;4.20;99.90;;;;;;5170597;27;20014;-89
2022/01/24 09:06:00;;;;;;;;;;;4.20;99.90;;;;;;5137268;27;19996;-89
2022/01/24 09:08:30;;;;;;;;;;;4.20;99.90;;;;;;5137070;27;20001;-89
2022/01/24 09:10:58;;;;;;;;;;;4.20;99.90;;;;;;5136709;27;20029;-89
2022/01/24 09:13:25;;;;;;;;;;;4.20;99.90;;;;;;5153522;27;20032;-88
2022/01/24 09:15:52;;;;;;;;;;;4.20;99.90;;;;;;5136507;27;20004;-88
2022/01/24 09:18:20;;;;;;;;;;;4.20;99.90;;;;;;5119367;27;20004;-89
2022/01/24 09:20:50;;;;;;;;;;;4.20;99.90;;;;;;5134724;27;39144;-89
2022/01/24 09:23:17;;;;;;;;;;;4.20;99.90;;;;;;5136056;27;20021;-88
2022/01/24 09:25:44;;;;;;;;;;;4.20;99.90;;;;;;5135735;27;36120;-88
2022/01/24 09:28:12;;;;;;;;;;;4.20;99.90;;;;;;5135307;27;36109;-88
2022/01/24 09:30:39;;;;;;;;;;;4.20;99.90;;;;;;5135030;27;33593;-88
2022/01/24 09:33:06;;;;;;;;;;;4.20;99.90;;;;;;5152965;27;20051;-89
2022/01/24 09:35:33;;;;;;;;;;;4.20;99.90;;;;;;5154199;27;25578;-89
2022/01/24 09:38:00;;;;;;;;;;;4.20;99.90;;;;;;5153080;27;41963;-88
2022/01/24 09:40:27;;;;;;;;;;;4.20;99.90;;;;;;5134668;27;36180;-88
2022/01/24 09:42:54;;;;;;;;;;;4.20;99.90;;;;;;5135081;27;31789;-88
2022/01/24 09:45:22;;;;;;;;;;;4.20;99.90;;;;;;5135629;27;32537;-89
2022/01/24 09:47:49;;;;;;;;;;;4.20;99.90;;;;;;5134891;27;37215;-89
2022/01/24 09:50:18;;;;;;;;;;;4.20;99.90;;;;;;5151735;27;36954;-88
2022/01/24 09:52:47;;;;;;;;;;;4.20;99.90;;;;;;5155105;27;20059;-88
2022/01/24 09:55:15;;;;;;;;;;;4.20;99.90;;;;;;5151777;27;36848;-89
2022/01/24 09:57:42;;;;;;;;;;;4.20;99.90;;;;;;5151987;27;34228;-89
2022/01/24 10:00:12;;;;;;;;;;;4.20;99.90;;;;;;5152137;27;31736;-88
2022/01/24 10:02:39;;;;;;;;;;;4.20;99.90;;;;;;5148058;27;37574;-89
2022/01/24 10:05:11;;;;;;;;;;;4.20;99.90;;;;;;5114226;28;36728;-89
2022/01/24 10:07:39;;;;;;;;;;;4.30;99.90;;;;;;5149791;27;20015;-88
2022/01/24 10:10:07;;;;;;;;;;;4.30;99.90;;;;;;5132281;28;20465;-89
2022/01/24 10:18:01;;;;;;;;;;;4.20;99.90;;;;;;5134273;27;20007;-89
2022/01/24 10:20:33;;;;;;;;;;;4.20;99.90;;;;;;5166546;27;20000;-88
2022/01/24 10:23:26;;;;;;;;;;;4.30;99.90;;;;;;5134392;28;20338;-89
2022/01/24 10:26:00;;;;;;;;;;;4.30;99.90;;;;;;5132988;28;34946;-89
2022/01/24 10:28:30;;;;;;;;;;;4.30;99.90;;;;;;5131797;28;20001;-89
2022/01/24 10:31:07;;;;;;;;;;;4.30;99.90;;;;;;5132913;27;20400;-89
2022/01/24 10:33:53;;;;;;;;;;;4.30;99.90;;;;;;5132853;27;20011;-88
2022/01/24 10:36:43;;;;;;;;;;;4.30;99.90;;;;;;5132120;28;19997;-89
2022/01/24 10:39:14;;;;;;;;;;;4.30;99.90;;;;;;5148621;27;40746;-89
2022/01/24 10:44:25;;;;;;;;;;;4.30;99.90;;;;;;5133676;28;19997;-89
2022/01/24 10:47:15;;;;;;;;;;;4.30;99.90;;;;;;5131181;28;44328;-89
2022/01/24 10:49:42;;;;;;;;;;;4.40;99.90;;;;;;5149916;27;20003;-89
2022/01/24 10:52:19;;;;;;;;;;;4.40;99.90;;;;;;5166917;27;20433;-90
2022/01/24 10:54:50;;;;;;;;;;;4.40;99.90;;;;;;5131077;28;46615;-90
2022/01/24 10:57:22;;;;;;;;;;;4.40;99.90;;;;;;5165972;27;39993;-90
2022/01/24 10:59:51;;;;;;;;;;;4.40;99.90;;;;;;5167315;27;20345;-90
2022/01/24 11:02:18;;;;;;;;;;;4.40;99.90;;;;;;5149518;27;20004;-90
2022/01/24 11:04:45;;;;;;;;;;;4.50;99.90;;;;;;5115445;27;19993;-90
2022/01/24 11:07:13;;;;;;;;;;;4.50;99.90;;;;;;5167148;27;20037;-90
2022/01/24 11:09:40;;;;;;;;;;;4.50;99.90;;;;;;5132595;27;20036;-90
2022/01/24 11:12:11;;;;;;;;;;;4.50;99.90;;;;;;5132572;28;20052;-90
2022/01/24 11:14:39;;;;;;;;;;;4.50;99.90;;;;;;5133057;28;20013;-90
2022/01/24 11:17:10;;;;;;;;;;;4.60;99.90;;;;;;5150021;27;20105;-91
2022/01/24 11:22:06;;;;;;;;;;;4.60;99.90;;;;;;5132397;28;20001;-91
2022/01/24 11:24:46;;;;;;;;;;;4.60;99.90;;;;;;5133578;28;20045;-90
2022/01/24 11:27:36;;;;;;;;;;;4.60;99.90;;;;;;5132871;28;19985;-90
2022/01/24 11:30:13;;;;;;;;;;;4.70;99.90;;;;;;5132593;28;20409;-90
2022/01/24 11:32:54;;;;;;;;;;;4.70;99.90;;;;;;5132925;28;20020;-90
2022/01/24 11:35:44;;;;;;;;;;;4.70;99.90;;;;;;5150513;27;20384;-91
2022/01/24 11:38:26;;;;;;;;;;;4.70;99.90;;;;;;5167091;27;20003;-91
2022/01/24 11:40:58;;;;;;;;;;;4.80;99.90;;;;;;5132294;28;20426;-91
2022/01/24 11:43:34;;;;;;;;;;;4.80;99.90;;;;;;5115081;28;26743;-91
2022/01/24 11:46:06;;;;;;;;;;;4.80;99.90;;;;;;5132558;28;20000;-91
2022/01/24 11:48:37;;;;;;;;;;;4.80;99.90;;;;;;5167661;27;20017;-91
2022/01/24 11:51:10;;;;;;;;;;;4.80;99.90;;;;;;5149981;27;20000;-91
2022/01/24 11:53:43;;;;;;;;;;;4.90;99.90;;;;;;5150151;27;20113;-90
2022/01/24 11:56:16;;;;;;;;;;;4.90;99.90;;;;;;5150057;27;20000;-91
2022/01/24 11:58:44;;;;;;;;;;;4.90;99.90;;;;;;5114932;28;20001;-91
2022/01/24 12:01:18;;;;;;;;;;;4.90;99.90;;;;;;5132311;27;20015;-90
2022/01/24 12:03:50;;;;;;;;;;;4.90;99.90;;;;;;5134023;28;20008;-90
2022/01/24 12:06:20;;;;;;;;;;;4.90;99.90;;;;;;5134222;28;20024;-91
2022/01/24 12:09:07;;;;;;;;;;;5.00;99.90;;;;;;5134172;27;20080;-90
2022/01/24 12:11:36;;;;;;;;;;;5.00;99.90;;;;;;5151621;27;20048;-91
2022/01/24 12:14:36;;;;;;;;;;;5.00;99.90;;;;;;5134579;28;20016;-90
2022/01/24 12:17:04;;;;;;;;;;;5.10;99.90;;;;;;5168786;27;20394;-91
2022/01/24 12:19:34;;;;;;;;;;;5.10;99.90;;;;;;5241104;27;20003;-90
2022/01/24 12:22:24;;;;;;;;;;;5.10;99.90;;;;;;5168565;27;20121;-90
2022/01/24 12:24:51;;;;;;;;;;;5.10;99.90;;;;;;5134306;27;20435;-90
2022/01/24 12:27:19;;;;;;;;;;;5.10;99.90;;;;;;5133638;27;20025;-90
2022/01/24 12:29:46;;;;;;;;;;;5.10;99.90;;;;;;5133984;28;20008;-90
2022/01/24 12:32:22;;;;;;;;;;;5.20;99.90;;;;;;5151188;27;20016;-91
2022/01/24 12:34:53;;;;;;;;;;;5.20;99.90;;;;;;5133637;28;20441;-90
2022/01/24 12:37:29;;;;;;;;;;;5.20;99.90;;;;;;5133503;28;20041;-90
2022/01/24 12:40:09;;;;;;;;;;;5.20;99.90;;;;;;5134051;27;20438;-90
2022/01/24 12:42:53;;;;;;;;;;;5.30;99.90;;;;;;5134085;28;19997;-90
2022/01/24 12:48:30;;;;;;;;;;;5.30;99.90;;;;;;5133315;27;19997;-90
2022/01/24 12:51:00;;;;;;;;;;;5.30;99.90;;;;;;5135073;28;20076;-90
2022/01/24 12:53:36;;;;;;;;;;;5.40;99.90;;;;;;5154415;27;19997;-90
2022/01/24 12:56:07;;;;;;;;;;;5.40;99.90;;;;;;5133547;28;20037;-90
2022/01/24 12:58:37;;;;;;;;;;;5.40;99.90;;;;;;5135291;28;20061;-90
2022/01/24 13:01:16;;;;;;;;;;;5.40;99.90;;;;;;5133628;27;20451;-90
2022/01/24 13:03:56;;;;;;;;;;;5.50;99.90;;;;;;5132785;27;22256;-90
2022/01/24 13:06:27;;;;;;;;;;;5.50;99.90;;;;;;5150689;27;19993;-90
2022/01/24 13:08:55;;;;;;;;;;;5.50;99.90;;;;;;5132039;27;38004;-90
2022/01/24 13:11:23;;;;;;;;;;;5.50;99.90;;;;;;5133371;27;20047;-90
2022/01/24 13:14:11;;;;;;;;;;;5.50;99.90;;;;;;5149466;27;20016;-90
2022/01/24 13:25:07;;;;;;;;;;;5.70;99.90;;;;;;5132849;27;19989;-90
2022/01/24 13:27:34;;;;;;;;;;;5.70;99.90;;;;;;5167402;27;19997;-89
2022/01/24 13:30:08;;;;;;;;;;;5.70;99.90;;;;;;5151138;27;19997;-89
2022/01/24 13:32:46;;;;;;;;;;;5.70;99.90;;;;;;5133466;27;19989;-90
2022/01/24 13:35:18;;;;;;;;;;;5.70;99.90;;;;;;5133948;28;20009;-90
2022/01/24 13:37:46;;;;;;;;;;;5.80;99.90;;;;;;5132935;28;20001;-90
2022/01/24 13:40:13;;;;;;;;;;;5.80;99.90;;;;;;5132925;28;20016;-89
2022/01/24 13:42:42;;;;;;;;;;;5.80;99.90;;;;;;5131835;28;36340;-90
2022/01/24 13:45:12;;;;;;;;;;;5.80;99.90;;;;;;5149014;27;20046;-88
2022/01/24 13:47:39;;;;;;;;;;;5.90;99.90;;;;;;5149062;27;31923;-90
2022/01/24 13:50:08;;;;;;;;;;;5.90;99.90;;;;;;5115013;27;33729;-90
2022/01/24 13:52:35;;;;;;;;;;;5.90;99.90;;;;;;5148871;27;37338;-89
2022/01/24 13:55:18;;;;;;;;;;;5.90;99.90;;;;;;5133471;28;34059;-89
2022/01/24 13:57:50;;;;;;;;;;;5.90;99.90;;;;;;5149531;27;37955;-90
2022/01/24 14:00:22;;;;;;;;;;;5.90;99.90;;;;;;5132573;27;20005;-89
2022/01/24 14:03:03;;;;;;;;;;;5.90;99.90;;;;;;5131793;27;26812;-90
2022/01/24 14:05:48;;;;;;;;;;;6.00;99.90;;;;;;5132078;27;20325;-90
2022/01/24 14:08:16;;;;;;;;;;;6.00;99.90;;;;;;5149222;27;30662;-90
2022/01/24 14:10:44;;;;;;;;;;;6.00;99.90;;;;;;5132866;27;20024;-90
2022/01/24 14:13:20;;;;;;;;;;;6.10;99.90;;;;;;5131646;28;29013;-90
2022/01/24 14:15:55;;;;;;;;;;;6.00;99.90;;;;;;5116117;27;19997;-90
2022/01/24 14:18:29;;;;;;;;;;;6.10;99.90;;;;;;5114902;28;26309;-90
2022/01/24 14:21:08;;;;;;;;;;;6.10;99.90;;;;;;5132554;28;20015;-90
2022/01/24 14:23:37;;;;;;;;;;;6.10;99.90;;;;;;5149068;27;34015;-90
2022/01/24 14:26:16;;;;;;;;;;;6.10;99.90;;;;;;5132684;28;19994;-90
2022/01/24 14:28:44;;;;;;;;;;;6.10;99.90;;;;;;5131195;28;39176;-90
2022/01/24 14:31:13;;;;;;;;;;;6.10;99.90;;;;;;5131270;27;39075;-90
2022/01/24 14:33:41;;;;;;;;;;;6.10;99.90;;;;;;5132091;27;23813;-89
2022/01/24 14:36:16;;;;;;;;;;;6.20;99.90;;;;;;5148375;27;31498;-89
2022/01/24 14:38:45;;;;;;;;;;;6.20;99.90;;;;;;5131427;28;29470;-90
2022/01/24 14:41:29;;;;;;;;;;;6.20;99.90;;;;;;5133385;28;20036;-89
2022/01/24 14:46:44;;;;;;;;;;;6.20;99.90;;;;;;5134370;28;20045;-90
2022/01/24 14:49:15;;;;;;;;;;;6.20;99.90;;;;;;5133726;27;20000;-90
2022/01/24 14:51:44;;;;;;;;;;;6.30;99.90;;;;;;5132858;28;19988;-90
2022/01/24 14:54:13;;;;;;;;;;;6.30;99.90;;;;;;5132304;28;20007;-90
2022/01/24 14:56:41;;;;;;;;;;;6.30;99.90;;;;;;5149668;27;20066;-90
2022/01/24 14:59:15;;;;;;;;;;;6.30;99.90;;;;;;5167389;27;20084;-89
2022/01/24 15:01:42;;;;;;;;;;;6.30;99.90;;;;;;5138143;27;20041;-89
2022/01/24 15:04:15;;;;;;;;;;;6.30;99.90;;;;;;5154688;27;20055;-89
2022/01/24 15:06:44;;;;;;;;;;;6.30;99.90;;;;;;5171003;27;19989;-90
2022/01/24 15:09:16;;;;;;;;;;;6.40;99.90;;;;;;5152802;27;20037;-89
2022/01/24 15:11:46;;;;;;;;;;;6.40;99.90;;;;;;5152415;27;20055;-89
2022/01/24 15:27:45;;;;;;;;;;;6.50;99.90;;;;;;5135103;27;20412;-89
2022/01/24 15:30:16;;;;;;;;;;;6.50;99.90;;;;;;5171305;27;19993;-89
2022/01/24 15:32:56;;;;;;;;;;;6.50;99.90;;;;;;5134032;27;45275;-89
2022/01/24 15:35:26;;;;;;;;;;;6.50;99.90;;;;;;5134118;27;39512;-89
2022/01/24 15:37:53;;;;;;;;;;;6.50;99.90;;;;;;5152848;27;43676;-89
2022/01/24 15:40:24;;;;;;;;;;;6.50;99.90;;;;;;5152226;27;20048;-89
2022/01/24 15:45:42;;;;;;;;;;;6.50;99.90;;;;;;5154359;27;20000;-89
2022/01/24 15:48:15;;;;;;;;;;;6.60;99.90;;;;;;5154101;27;20001;-89
2022/01/24 15:50:45;;;;;;;;;;;6.60;99.90;;;;;;5135825;27;20365;-89
2022/01/24 15:53:17;;;;;;;;;;;6.60;99.90;;;;;;5135365;27;20014;-89
2022/01/24 15:58:31;;;;;;;;;;;6.60;99.90;;;;;;5153826;27;24102;-90
2022/01/24 16:01:01;;;;;;;;;;;6.60;99.90;;;;;;5169949;27;20003;-89
2022/01/24 16:03:31;;;;;;;;;;;6.60;99.90;;;;;;5152286;27;20015;-89
2022/01/24 16:05:58;;;;;;;;;;;6.60;99.90;;;;;;5134311;27;33976;-90
2022/01/24 16:08:26;;;;;;;;;;;6.60;99.90;;;;;;5118004;27;22698;-89
2022/01/24 16:10:56;;;;;;;;;;;6.60;99.90;;;;;;5134926;27;19989;-89
2022/01/24 16:13:26;;;;;;;;;;;6.70;99.90;;;;;;5135140;27;19997;-89
2022/01/24 16:15:53;;;;;;;;;;;6.70;99.90;;;;;;5153380;27;35248;-89
2022/01/24 16:18:21;;;;;;;;;;;6.70;99.90;;;;;;5168660;27;37080;-89
2022/01/24 16:21:13;;;;;;;;;;;6.70;99.90;;;;;;5134397;27;27385;-89
2022/01/24 16:23:47;;;;;;;;;;;6.70;99.90;;;;;;5135571;27;20292;-89
2022/01/24 16:26:17;;;;;;;;;;;6.70;99.90;;;;;;5136343;27;20041;-88
2022/01/24 16:28:49;;;;;;;;;;;6.70;99.90;;;;;;5135994;27;20007;-89
2022/01/24 16:31:16;;;;;;;;;;;6.70;99.90;;;;;;5169062;27;43283;-89
2022/01/24 16:33:44;;;;;;;;;;;6.70;99.90;;;;;;5151569;27;29314;-89
2022/01/24 16:36:19;;;;;;;;;;;6.70;99.90;;;;;;5169083;27;30137;-89
2022/01/24 16:38:47;;;;;;;;;;;6.70;99.90;;;;;;5151484;27;38191;-89
2022/01/24 16:41:34;;;;;;;;;;;6.70;99.90;;;;;;5133862;27;42416;-89
2022/01/24 16:44:19;;;;;;;;;;;6.70;99.90;;;;;;5154044;27;19993;-89
2022/01/24 16:49:34;;;;;;;;;;;6.70;99.90;;;;;;5135289;27;21365;-89
2022/01/24 16:52:01;;;;;;;;;;;6.70;99.90;;;;;;5152282;27;38832;-89
2022/01/24 16:54:30;;;;;;;;;;;6.70;99.90;;;;;;5134812;27;45646;-88
2022/01/24 16:57:00;;;;;;;;;;;6.70;99.90;;;;;;5152914;27;36317;-88
2022/01/24 16:59:28;;;;;;;;;;;6.70;99.90;;;;;;5152168;27;36872;-88
2022/01/24 17:01:55;;;;;;;;;;;6.70;99.90;;;;;;5153897;27;20027;-88
2022/01/24 17:04:22;;;;;;;;;;;6.70;99.90;;;;;;5153954;27;20044;-89
2022/01/24 17:06:53;;;;;;;;;;;6.70;99.90;;;;;;5136886;27;20421;-89
2022/01/24 17:09:21;;;;;;;;;;;6.70;99.90;;;;;;5169952;27;38194;-88
2022/01/24 17:11:53;;;;;;;;;;;6.70;99.90;;;;;;5134777;27;43938;-89
2022/01/24 17:14:21;;;;;;;;;;;6.70;99.90;;;;;;5154118;27;41122;-89
2022/01/24 17:16:49;;;;;;;;;;;6.60;99.90;;;;;;5136072;27;19997;-88
2022/01/24 17:19:17;;;;;;;;;;;6.70;99.90;;;;;;5168967;27;43611;-88
2022/01/24 17:21:48;;;;;;;;;;;6.70;99.90;;;;;;5152602;27;20001;-88
2022/01/24 17:24:30;;;;;;;;;;;6.70;99.90;;;;;;5134748;27;44671;-88
2022/01/24 17:27:23;;;;;;;;;;;6.60;99.90;;;;;;5135610;27;20006;-88
2022/01/24 17:29:51;;;;;;;;;;;6.70;99.90;;;;;;5154436;27;19997;-88